Jermyn, Pennsylvania
Current Conditions -  °F | °C
As of 10:54 PM on Tuesday 25 Nov 2014 (Local Time) from KAVP Reporting Station
Clear Clear  
Wind Chill: 39°   Ceiling: Unl
Heat Index: 39°   Visibility: 10mi
Dew Point: 27°   Wind: 0mph
Humidity: 62%   Direction: NA
Pressure: 30.13"   Gusts: NA
Location:  41.53°N, 75.55°W
Report Text: KAVP 260354Z AUTO 00000KT 10SM CLR 04/M03 A3013 RMK AO2 SLP205 T00391028
Loading
Personal Weather Stations






























Interactive Weather Map New forecast layout! Learn more

10-Day Weather Forecast

Advertisements
Track Severe Weather on mobile